Time;durP1;ratioP1;P1;durP2;ratioP2;P2;SDS_P1;SDS_P2;PMS_P1;PMS_P2;Temp;Humidity;BMP_temperature;BMP_pressure;BME280_temperature;BME280_humidity;BME280_pressure;Samples;Min_cycle;Max_cycle;Signal;HPM_P1;HPM_P2
2023/02/06 00:01:44;;;;;;;41.47;5.15;;;2.90;99.90;;;;;;5014877;28;20044;-88
2023/02/06 00:04:10;;;;;;;34.60;5.13;;;2.90;99.90;;;;;;5024662;28;20026;-87
2023/02/06 00:06:35;;;;;;;33.55;5.47;;;2.90;99.90;;;;;;5030308;28;20025;-88
2023/02/06 00:09:02;;;;;;;43.53;4.72;;;2.80;99.90;;;;;;5032624;28;20454;-87
2023/02/06 00:11:28;;;;;;;43.65;4.55;;;2.80;99.90;;;;;;5031057;28;20045;-88
2023/02/06 00:13:53;;;;;;;39.70;4.97;;;2.80;99.90;;;;;;5021114;28;20030;-88
2023/02/06 00:16:23;;;;;;;41.65;4.60;;;2.80;99.90;;;;;;5025845;28;20361;-88
2023/02/06 00:18:50;;;;;;;42.00;6.03;;;2.70;99.90;;;;;;5032605;28;20017;-88
2023/02/06 00:21:20;;;;;;;38.78;3.53;;;2.70;99.90;;;;;;5032003;28;20032;-88
2023/02/06 00:23:49;;;;;;;40.08;4.20;;;2.70;99.90;;;;;;5016533;28;20033;-88
2023/02/06 00:26:15;;;;;;;47.25;5.03;;;2.80;99.90;;;;;;5031306;28;20428;-88
2023/02/06 00:28:41;;;;;;;36.40;4.65;;;2.70;99.90;;;;;;5028657;28;20029;-88
2023/02/06 00:31:08;;;;;;;38.78;4.88;;;2.80;99.90;;;;;;5026851;28;20488;-88
2023/02/06 00:33:34;;;;;;;33.75;4.30;;;2.80;99.90;;;;;;5028232;28;20105;-87
2023/02/06 00:36:00;;;;;;;40.75;4.35;;;2.80;99.90;;;;;;5022178;28;20539;-88
2023/02/06 00:38:25;;;;;;;36.70;3.83;;;2.80;99.90;;;;;;5027675;28;20033;-88
2023/02/06 00:40:51;;;;;;;36.55;4.07;;;2.80;99.90;;;;;;5027594;28;20033;-88
2023/02/06 00:43:16;;;;;;;40.30;5.40;;;2.80;99.90;;;;;;5022770;28;20021;-87
2023/02/06 00:45:42;;;;;;;44.13;4.93;;;2.80;99.90;;;;;;5030509;28;20124;-88
2023/02/06 00:48:08;;;;;;;36.97;3.78;;;2.80;99.90;;;;;;5029734;28;20035;-88
2023/02/06 00:50:33;;;;;;;34.88;4.95;;;2.80;99.90;;;;;;5030833;28;20029;-87
2023/02/06 00:52:59;;;;;;;42.13;4.35;;;2.70;99.90;;;;;;5023781;28;20453;-87
2023/02/06 00:55:25;;;;;;;39.08;4.40;;;2.70;99.90;;;;;;5017901;28;20029;-88
2023/02/06 00:57:50;;;;;;;51.30;5.05;;;2.70;99.90;;;;;;5019345;28;20474;-88
2023/02/06 01:00:16;;;;;;;43.97;4.18;;;2.70;99.90;;;;;;5028707;28;20037;-88
2023/02/06 01:02:41;;;;;;;42.92;4.82;;;2.70;99.90;;;;;;5017880;28;20048;-88
2023/02/06 01:05:07;;;;;;;44.95;4.13;;;2.70;99.90;;;;;;5027401;28;20555;-88
2023/02/06 01:07:36;;;;;;;43.00;4.57;;;2.70;99.90;;;;;;5031291;28;20053;-88
2023/02/06 01:10:02;;;;;;;52.85;4.18;;;2.60;99.90;;;;;;5031893;28;20022;-88
2023/02/06 01:12:27;;;;;;;35.80;2.95;;;2.60;99.90;;;;;;5031474;28;20045;-88
2023/02/06 01:14:53;;;;;;;36.42;3.85;;;2.60;99.90;;;;;;5027120;28;20483;-88
2023/02/06 01:17:18;;;;;;;50.22;4.85;;;2.50;99.90;;;;;;5028059;28;20025;-88
2023/02/06 01:19:44;;;;;;;37.13;3.28;;;2.50;99.90;;;;;;5024355;28;20030;-88
2023/02/06 01:22:09;;;;;;;36.55;3.53;;;2.40;99.90;;;;;;5027306;28;20021;-88
2023/02/06 01:24:35;;;;;;;32.95;3.13;;;2.40;99.90;;;;;;5030317;28;20053;-88
2023/02/06 01:27:01;;;;;;;46.00;4.38;;;2.40;99.90;;;;;;5018604;28;20041;-88
2023/02/06 01:29:26;;;;;;;33.85;3.75;;;2.40;99.90;;;;;;5015568;28;20048;-88
2023/02/06 01:31:52;;;;;;;52.85;4.63;;;2.40;99.90;;;;;;5031350;28;20032;-88
2023/02/06 01:34:17;;;;;;;41.95;3.88;;;2.30;99.90;;;;;;5030234;28;20029;-88
2023/02/06 01:36:43;;;;;;;38.42;3.40;;;2.30;99.90;;;;;;5026471;28;20034;-88
2023/02/06 01:39:09;;;;;;;43.17;3.85;;;2.40;99.90;;;;;;5019779;28;20021;-88
2023/02/06 01:41:34;;;;;;;34.45;4.75;;;2.30;99.90;;;;;;5029319;28;20072;-87
2023/02/06 01:44:09;;;;;;;37.72;4.50;;;2.30;99.90;;;;;;5031098;28;20030;-88
2023/02/06 01:46:36;;;;;;;41.42;4.22;;;2.30;99.90;;;;;;5030429;28;20120;-88
2023/02/06 01:49:03;;;;;;;52.72;4.72;;;2.30;99.90;;;;;;5030350;28;20025;-88
2023/02/06 01:51:29;;;;;;;37.08;5.10;;;2.40;99.90;;;;;;5021302;28;20030;-88
2023/02/06 01:54:02;;;;;;;40.88;4.57;;;2.40;99.90;;;;;;5029081;28;20030;-88
2023/02/06 01:56:33;;;;;;;44.70;4.95;;;2.40;99.90;;;;;;5025375;28;20033;-88
2023/02/06 01:59:01;;;;;;;37.38;3.67;;;2.50;99.90;;;;;;5029214;28;20029;-88
2023/02/06 02:01:28;;;;;;;36.92;4.80;;;2.50;99.90;;;;;;5031268;28;20083;-88
2023/02/06 02:03:59;;;;;;;46.10;3.72;;;2.50;99.90;;;;;;5034255;28;20033;-87
2023/02/06 02:06:26;;;;;;;41.28;4.38;;;2.60;99.90;;;;;;5023416;28;20132;-88
2023/02/06 02:08:55;;;;;;;44.45;4.45;;;2.60;99.90;;;;;;5028158;28;20026;-88
2023/02/06 02:11:29;;;;;;;42.75;3.53;;;2.60;99.90;;;;;;5033353;28;20087;-88
2023/02/06 02:13:55;;;;;;;47.92;4.25;;;2.60;99.90;;;;;;5034343;28;20060;-88
2023/02/06 02:16:33;;;;;;;43.67;5.50;;;2.60;99.90;;;;;;5034172;28;20039;-88
2023/02/06 02:19:25;;;;;;;35.13;3.97;;;2.70;99.90;;;;;;5027697;28;20026;-88
2023/02/06 02:22:09;;;;;;;47.47;4.55;;;2.70;99.90;;;;;;5030008;28;20107;-87
2023/02/06 02:24:55;;;;;;;45.97;5.43;;;2.70;99.90;;;;;;5031959;28;20042;-89
2023/02/06 02:27:52;;;;;;;35.67;3.85;;;2.70;99.90;;;;;;5033882;28;20034;-88
2023/02/06 02:31:01;;;;;;;37.85;3.97;;;2.80;99.90;;;;;;5030145;28;20030;-88
2023/02/06 02:33:45;;;;;;;42.75;4.35;;;2.70;99.90;;;;;;5029713;28;20028;-88
2023/02/06 02:36:21;;;;;;;41.90;5.25;;;2.70;99.90;;;;;;5019761;28;20492;-88
2023/02/06 02:39:16;;;;;;;43.53;6.18;;;2.70;99.90;;;;;;5032222;28;20030;-88
2023/02/06 02:42:00;;;;;;;42.83;5.57;;;2.80;99.90;;;;;;5030398;28;20025;-88
2023/02/06 02:44:49;;;;;;;30.25;4.32;;;2.70;99.90;;;;;;5033556;28;20120;-88
2023/02/06 02:47:19;;;;;;;39.83;5.55;;;2.80;99.90;;;;;;5032424;28;20564;-88
2023/02/06 02:49:45;;;;;;;31.80;3.92;;;2.70;99.90;;;;;;5025202;28;20065;-88
2023/02/06 02:52:13;;;;;;;35.92;4.47;;;2.70;99.90;;;;;;5030824;28;20053;-88
2023/02/06 02:54:39;;;;;;;41.15;5.57;;;2.80;99.90;;;;;;5030566;28;20037;-88
2023/02/06 02:57:10;;;;;;;42.00;4.75;;;2.80;99.90;;;;;;5027696;28;20022;-88
2023/02/06 02:59:42;;;;;;;42.20;5.82;;;2.80;99.90;;;;;;5031254;28;20538;-88
2023/02/06 03:02:12;;;;;;;44.83;6.13;;;2.90;99.90;;;;;;5029666;28;20030;-88
2023/02/06 03:04:37;;;;;;;50.83;4.85;;;2.90;99.90;;;;;;5026307;28;20488;-88
2023/02/06 03:07:32;;;;;;;46.63;5.68;;;3.00;99.90;;;;;;5028076;28;20045;-88
2023/02/06 03:10:06;;;;;;;35.65;4.13;;;3.00;99.90;;;;;;5033391;28;20036;-88
2023/02/06 03:12:39;;;;;;;39.88;6.10;;;3.00;99.90;;;;;;5030039;28;20034;-88
2023/02/06 03:15:34;;;;;;;49.30;5.60;;;3.00;99.90;;;;;;5028807;28;20079;-88
2023/02/06 03:18:11;;;;;;;51.17;5.75;;;3.00;99.90;;;;;;5023845;28;20060;-88
2023/02/06 03:20:41;;;;;;;48.65;5.60;;;3.00;99.90;;;;;;5032991;28;20033;-87
2023/02/06 03:23:10;;;;;;;34.55;5.30;;;3.10;99.90;;;;;;5032891;28;20025;-88
2023/02/06 03:25:40;;;;;;;41.70;5.85;;;3.10;99.90;;;;;;5033045;28;20104;-88
2023/02/06 03:28:17;;;;;;;36.90;6.45;;;3.10;99.90;;;;;;5023577;28;20041;-87
2023/02/06 03:30:47;;;;;;;41.03;6.07;;;3.10;99.90;;;;;;5026460;28;20029;-88
2023/02/06 03:33:16;;;;;;;49.15;5.45;;;3.10;99.90;;;;;;5029689;28;20472;-88
2023/02/06 03:35:42;;;;;;;44.55;4.85;;;3.10;99.90;;;;;;5027182;28;20040;-88
2023/02/06 03:38:08;;;;;;;39.45;5.00;;;3.10;99.90;;;;;;5021457;28;20021;-88
2023/02/06 03:40:34;;;;;;;41.65;4.85;;;3.10;99.90;;;;;;5022513;28;20062;-88
2023/02/06 03:43:03;;;;;;;43.65;6.78;;;3.10;99.90;;;;;;5027435;28;20032;-87
2023/02/06 03:45:36;;;;;;;44.35;5.40;;;3.10;99.90;;;;;;5030087;28;20034;-88
2023/02/06 03:48:08;;;;;;;39.70;5.45;;;3.10;99.90;;;;;;5021909;28;20026;-88
2023/02/06 03:50:35;;;;;;;36.45;3.90;;;3.00;99.90;;;;;;5012561;28;20056;-88
2023/02/06 03:53:02;;;;;;;37.85;4.65;;;3.00;99.90;;;;;;5028618;28;20497;-88
2023/02/06 03:55:28;;;;;;;44.35;4.63;;;2.90;99.90;;;;;;5032434;28;20069;-88
2023/02/06 03:58:06;;;;;;;34.97;3.83;;;2.80;99.90;;;;;;5039922;28;20029;-88
2023/02/06 04:00:33;;;;;;;43.03;5.07;;;2.70;99.90;;;;;;5031095;28;20037;-87
2023/02/06 04:02:59;;;;;;;27.00;3.92;;;2.60;99.90;;;;;;5013021;28;20021;-88
2023/02/06 04:05:25;;;;;;;48.33;5.30;;;2.50;99.90;;;;;;5030783;28;20029;-88
2023/02/06 04:07:52;;;;;;;39.80;4.82;;;2.40;99.90;;;;;;5032932;28;20089;-88
2023/02/06 04:10:18;;;;;;;43.80;5.82;;;2.40;99.90;;;;;;5027057;28;20846;-88
2023/02/06 04:12:44;;;;;;;30.35;3.92;;;2.30;99.90;;;;;;5012888;28;20385;-88
2023/02/06 04:15:10;;;;;;;21.27;3.42;;;2.40;99.90;;;;;;5026540;28;20112;-88
2023/02/06 04:17:36;;;;;;;29.65;4.55;;;2.30;99.90;;;;;;5018313;28;20025;-88
2023/02/06 04:20:03;;;;;;;48.22;4.45;;;2.30;99.90;;;;;;5031026;28;20021;-88
2023/02/06 04:22:29;;;;;;;35.95;4.82;;;2.30;99.90;;;;;;5025508;28;20091;-88
2023/02/06 04:24:54;;;;;;;37.95;5.38;;;2.30;99.90;;;;;;5028424;28;20049;-88
2023/02/06 04:27:20;;;;;;;40.65;4.65;;;2.30;99.90;;;;;;5029416;28;20477;-88
2023/02/06 04:29:45;;;;;;;37.10;4.40;;;2.30;99.90;;;;;;5031255;28;20022;-88
2023/02/06 04:32:11;;;;;;;35.60;4.00;;;2.20;99.90;;;;;;5028254;28;20022;-88
2023/02/06 04:34:37;;;;;;;32.53;4.22;;;2.20;99.90;;;;;;5032183;28;20066;-88
2023/02/06 04:37:04;;;;;;;28.13;4.78;;;2.20;99.90;;;;;;5027314;28;20040;-88
2023/02/06 04:39:30;;;;;;;52.42;4.45;;;2.10;99.90;;;;;;5027187;28;20375;-88
2023/02/06 04:41:56;;;;;;;32.53;3.92;;;2.10;99.90;;;;;;5023126;28;20033;-89
2023/02/06 04:44:22;;;;;;;31.60;3.97;;;2.10;99.90;;;;;;5019062;28;20038;-88
2023/02/06 04:46:47;;;;;;;31.10;3.72;;;2.00;99.90;;;;;;5028714;28;20132;-88
2023/02/06 04:49:14;;;;;;;44.00;4.90;;;1.90;99.90;;;;;;5028698;28;20080;-88
2023/02/06 04:51:40;;;;;;;43.95;4.97;;;1.90;99.90;;;;;;5013482;28;20033;-88
2023/02/06 04:54:07;;;;;;;35.50;4.05;;;1.80;99.90;;;;;;5019321;28;20033;-89
2023/02/06 04:56:32;;;;;;;27.75;4.07;;;1.80;99.90;;;;;;5020338;28;20056;-88
2023/02/06 04:58:58;;;;;;;33.75;3.53;;;1.80;99.90;;;;;;5011971;28;20496;-88
2023/02/06 05:01:24;;;;;;;40.28;5.45;;;1.80;99.90;;;;;;5019762;28;20484;-87
2023/02/06 05:03:50;;;;;;;36.42;4.13;;;1.80;99.90;;;;;;5032102;28;20021;-88
2023/02/06 05:06:16;;;;;;;32.80;5.00;;;1.80;99.90;;;;;;5012099;28;20033;-88
2023/02/06 05:08:41;;;;;;;45.00;4.82;;;1.80;99.90;;;;;;5027586;28;20072;-88
2023/02/06 05:11:07;;;;;;;41.28;4.82;;;1.80;99.90;;;;;;5023633;28;20030;-88
2023/02/06 05:13:35;;;;;;;42.80;4.78;;;1.90;99.90;;;;;;5031262;28;20469;-88
2023/02/06 05:16:09;;;;;;;37.97;4.63;;;2.00;99.90;;;;;;5028819;28;20033;-89
2023/02/06 05:18:35;;;;;;;29.55;4.00;;;2.10;99.90;;;;;;5026685;28;20037;-89
2023/02/06 05:21:01;;;;;;;32.92;4.30;;;2.10;99.90;;;;;;5034612;28;20082;-88
2023/02/06 05:23:26;;;;;;;32.22;5.45;;;2.10;99.90;;;;;;5028930;28;20037;-90
2023/02/06 05:25:52;;;;;;;35.45;7.45;;;2.00;99.90;;;;;;5020878;28;20042;-88
2023/02/06 05:28:18;;;;;;;60.63;24.40;;;2.00;99.90;;;;;;5033254;28;20112;-88
2023/02/06 05:30:43;;;;;;;64.60;22.95;;;1.90;99.90;;;;;;5024788;28;20797;-88
2023/02/06 05:33:09;;;;;;;47.38;15.80;;;1.80;99.90;;;;;;5019409;28;20041;-88
2023/02/06 05:35:37;;;;;;;50.58;14.93;;;1.80;99.90;;;;;;5024843;28;20032;-88
2023/02/06 05:38:02;;;;;;;41.45;11.55;;;1.80;99.90;;;;;;5034752;28;20029;-89
2023/02/06 05:40:28;;;;;;;35.45;7.07;;;1.80;99.90;;;;;;5035749;28;20033;-88
2023/02/06 05:42:54;;;;;;;36.95;7.63;;;1.70;99.90;;;;;;5037533;28;20026;-88
2023/02/06 05:45:19;;;;;;;32.20;6.20;;;1.80;99.90;;;;;;5037954;28;20030;-88
2023/02/06 05:47:45;;;;;;;34.13;4.80;;;1.80;99.90;;;;;;5031324;28;20024;-88
2023/02/06 05:50:10;;;;;;;22.02;4.65;;;1.70;99.90;;;;;;5031413;28;20026;-89
2023/02/06 05:52:36;;;;;;;41.22;4.47;;;1.70;99.90;;;;;;5034905;28;20032;-88
2023/02/06 05:55:01;;;;;;;27.08;4.07;;;1.60;99.90;;;;;;5032600;28;20342;-89
2023/02/06 05:57:27;;;;;;;24.77;3.17;;;1.60;99.90;;;;;;5036954;28;20041;-89
2023/02/06 05:59:53;;;;;;;23.23;3.13;;;1.60;99.90;;;;;;5037858;28;20029;-90
2023/02/06 06:02:18;;;;;;;43.70;5.95;;;1.70;99.90;;;;;;5037208;28;20029;-89
2023/02/06 06:04:44;;;;;;;26.67;4.13;;;1.80;99.90;;;;;;5037524;28;20132;-90
2023/02/06 06:07:09;;;;;;;30.65;4.07;;;1.80;99.90;;;;;;5037865;28;20116;-90
2023/02/06 06:09:35;;;;;;;31.70;3.83;;;1.80;99.90;;;;;;5035962;28;20036;-90
2023/02/06 06:12:00;;;;;;;33.78;6.03;;;1.70;99.90;;;;;;5037229;28;20029;-89
2023/02/06 06:14:26;;;;;;;39.47;6.13;;;1.50;99.90;;;;;;5020265;28;20030;-89
2023/02/06 06:16:51;;;;;;;44.05;4.80;;;1.40;99.90;;;;;;5036805;28;20026;-90
2023/02/06 06:19:17;;;;;;;28.58;4.07;;;1.30;99.90;;;;;;5036805;28;20037;-90
2023/02/06 06:21:43;;;;;;;26.27;3.92;;;1.30;99.90;;;;;;5036623;28;20025;-89
2023/02/06 06:24:08;;;;;;;25.50;3.50;;;1.30;99.90;;;;;;5035315;28;20124;-89
2023/02/06 06:26:34;;;;;;;35.13;4.50;;;1.30;99.90;;;;;;5040004;28;20128;-90
2023/02/06 06:28:59;;;;;;;34.13;3.75;;;1.30;99.90;;;;;;5039628;28;20021;-90
2023/02/06 06:31:25;;;;;;;28.83;4.75;;;1.20;99.90;;;;;;5029897;28;20029;-89
2023/02/06 06:33:51;;;;;;;27.27;5.78;;;1.30;99.90;;;;;;5028677;28;20032;-89
2023/02/06 06:36:17;;;;;;;38.45;5.47;;;1.30;99.90;;;;;;5026825;28;20428;-89
2023/02/06 06:38:42;;;;;;;32.97;4.70;;;1.20;99.90;;;;;;5033548;28;20103;-89
2023/02/06 06:41:08;;;;;;;27.80;3.92;;;1.20;99.90;;;;;;5033648;28;20377;-90
2023/02/06 06:43:33;;;;;;;54.38;4.60;;;1.20;99.90;;;;;;5035849;28;20040;-90
2023/02/06 06:46:00;;;;;;;28.23;3.72;;;1.20;99.90;;;;;;5034687;28;20030;-89
2023/02/06 06:48:26;;;;;;;23.88;4.28;;;1.30;99.90;;;;;;5038714;28;20112;-89
2023/02/06 06:50:52;;;;;;;42.55;4.20;;;1.40;99.90;;;;;;5038488;28;20072;-89
2023/02/06 06:53:17;;;;;;;34.83;4.20;;;1.40;99.90;;;;;;5036617;28;20029;-89
2023/02/06 06:55:43;;;;;;;35.45;4.47;;;1.50;99.90;;;;;;5034180;28;20034;-89
2023/02/06 06:58:09;;;;;;;40.15;5.70;;;1.50;99.90;;;;;;5035191;28;20044;-89
2023/02/06 07:00:35;;;;;;;36.38;5.18;;;1.60;99.90;;;;;;5036042;28;20092;-89
2023/02/06 07:03:01;;;;;;;29.67;4.15;;;1.70;99.90;;;;;;5035086;28;20017;-89
2023/02/06 07:05:26;;;;;;;33.67;4.80;;;1.80;99.90;;;;;;5026550;28;20044;-89
2023/02/06 07:07:52;;;;;;;31.73;5.00;;;2.00;99.90;;;;;;5023094;28;20053;-90
2023/02/06 07:10:17;;;;;;;36.42;5.40;;;2.00;99.90;;;;;;5022505;28;20026;-89
2023/02/06 07:12:43;;;;;;;30.58;4.80;;;2.10;99.90;;;;;;5017013;28;20025;-89
2023/02/06 07:15:09;;;;;;;24.65;5.93;;;2.20;99.90;;;;;;5032773;28;20116;-89
2023/02/06 07:17:35;;;;;;;36.88;5.43;;;2.20;99.90;;;;;;5031954;28;20024;-89
2023/02/06 07:20:00;;;;;;;37.22;5.15;;;2.30;99.90;;;;;;5027858;28;20120;-89
2023/02/06 07:22:26;;;;;;;45.53;4.85;;;2.40;99.90;;;;;;5030371;28;20052;-90
2023/02/06 07:24:51;;;;;;;40.13;5.32;;;2.40;99.90;;;;;;5023526;28;20042;-90
2023/02/06 07:27:18;;;;;;;29.27;4.75;;;2.40;99.90;;;;;;5023012;28;20504;-90
2023/02/06 07:29:43;;;;;;;35.42;6.05;;;2.40;99.90;;;;;;5028047;28;20052;-90
2023/02/06 07:32:10;;;;;;;36.08;6.72;;;2.50;99.90;;;;;;5031052;28;20118;-91
2023/02/06 07:34:35;;;;;;;32.03;6.15;;;2.60;99.90;;;;;;5032355;28;20026;-90
2023/02/06 07:37:02;;;;;;;38.40;6.47;;;2.60;99.90;;;;;;5031255;28;20358;-91
2023/02/06 07:39:27;;;;;;;37.28;7.03;;;2.60;99.90;;;;;;5017625;28;20119;-91
2023/02/06 07:41:53;;;;;;;32.95;8.23;;;2.60;99.90;;;;;;5031966;28;20088;-91
2023/02/06 07:44:18;;;;;;;37.33;7.75;;;2.70;99.90;;;;;;5021771;28;20026;-90
2023/02/06 07:46:44;;;;;;;37.60;8.27;;;2.70;99.90;;;;;;5025506;28;20030;-90
2023/02/06 07:49:16;;;;;;;43.40;10.07;;;2.70;99.90;;;;;;5029341;28;20061;-90
2023/02/06 07:51:43;;;;;;;41.60;8.87;;;2.80;99.90;;;;;;5034485;28;20029;-90
2023/02/06 07:54:09;;;;;;;37.88;8.95;;;2.80;99.90;;;;;;5030195;28;20288;-90
2023/02/06 07:56:35;;;;;;;40.42;8.25;;;2.90;99.90;;;;;;5036103;28;20025;-90
2023/02/06 07:59:00;;;;;;;33.55;10.05;;;2.90;99.90;;;;;;5034267;28;20496;-90
2023/02/06 08:01:26;;;;;;;30.77;7.60;;;3.00;99.90;;;;;;5027414;28;20166;-90
2023/02/06 08:03:52;;;;;;;28.17;7.43;;;3.00;99.90;;;;;;5033437;28;20025;-89
2023/02/06 08:06:20;;;;;;;37.42;7.40;;;3.10;99.90;;;;;;5024901;28;20083;-90
2023/02/06 08:08:46;;;;;;;33.42;6.57;;;3.10;99.90;;;;;;5030879;28;20543;-91
2023/02/06 08:11:15;;;;;;;26.38;6.53;;;3.20;99.90;;;;;;5029686;28;20390;-90
2023/02/06 08:13:42;;;;;;;31.15;7.15;;;3.20;99.90;;;;;;5047187;28;20151;-90
2023/02/06 08:16:11;;;;;;;32.13;7.07;;;3.20;99.90;;;;;;5032761;28;20036;-90
2023/02/06 08:18:37;;;;;;;25.90;6.70;;;3.30;99.90;;;;;;5033481;28;20022;-91
2023/02/06 08:21:06;;;;;;;27.38;6.13;;;3.30;99.90;;;;;;5030033;28;20073;-90
2023/02/06 08:23:31;;;;;;;27.33;6.63;;;3.40;99.90;;;;;;5025054;28;20021;-91
2023/02/06 08:26:09;;;;;;;34.47;6.25;;;3.40;99.90;;;;;;5030250;28;20063;-90
2023/02/06 08:28:36;;;;;;;21.85;5.30;;;3.50;99.90;;;;;;5025769;28;20026;-89
2023/02/06 08:31:13;;;;;;;22.23;5.25;;;3.50;99.90;;;;;;5029152;28;20025;-90
2023/02/06 08:33:40;;;;;;;25.27;6.00;;;3.60;99.90;;;;;;5027763;28;20022;-90
2023/02/06 08:36:06;;;;;;;37.85;6.38;;;3.60;99.90;;;;;;5015420;28;20029;-90
2023/02/06 08:38:31;;;;;;;25.92;5.93;;;3.70;99.90;;;;;;5030436;28;20029;-90
2023/02/06 08:40:57;;;;;;;28.50;6.18;;;3.70;99.90;;;;;;5028919;28;20044;-90
2023/02/06 08:43:23;;;;;;;39.70;7.30;;;3.70;99.90;;;;;;5028985;28;20021;-90
2023/02/06 08:45:50;;;;;;;38.40;6.40;;;3.80;99.90;;;;;;5025114;28;20049;-89
2023/02/06 08:48:16;;;;;;;31.83;7.40;;;3.80;99.90;;;;;;5025894;28;20037;-90
2023/02/06 08:50:42;;;;;;;35.70;6.82;;;3.90;99.90;;;;;;5030129;28;20033;-90
2023/02/06 08:53:08;;;;;;;28.38;5.22;;;3.90;99.90;;;;;;5020350;28;20034;-90
2023/02/06 08:55:33;;;;;;;37.17;5.32;;;3.80;99.90;;;;;;5023165;28;20033;-90
2023/02/06 08:57:59;;;;;;;35.55;6.25;;;3.80;99.90;;;;;;5030567;28;20022;-90
2023/02/06 09:00:24;;;;;;;24.20;6.03;;;3.90;99.90;;;;;;5025674;28;20033;-89
2023/02/06 09:02:54;;;;;;;32.40;6.38;;;3.90;99.90;;;;;;5026907;28;20491;-91
2023/02/06 09:05:20;;;;;;;25.45;5.93;;;3.90;99.90;;;;;;5032545;28;20038;-90
2023/02/06 09:07:46;;;;;;;39.22;6.10;;;3.90;99.90;;;;;;5034088;28;20025;-89
2023/02/06 09:10:12;;;;;;;36.47;6.13;;;3.90;99.90;;;;;;5034669;28;20071;-90
2023/02/06 09:12:37;;;;;;;38.92;6.85;;;4.00;99.90;;;;;;5029719;28;20051;-90
2023/02/06 09:15:04;;;;;;;32.20;7.15;;;4.00;99.90;;;;;;5029246;28;20033;-87
2023/02/06 09:17:30;;;;;;;42.58;6.47;;;4.10;99.90;;;;;;5035209;28;20588;-89
2023/02/06 09:20:00;;;;;;;27.90;6.32;;;4.20;99.90;;;;;;5033423;28;20037;-89
2023/02/06 09:22:26;;;;;;;29.20;6.15;;;4.30;99.90;;;;;;5026969;28;20033;-90
2023/02/06 09:24:52;;;;;;;41.15;6.82;;;4.40;99.90;;;;;;5035044;28;20034;-89
2023/02/06 09:27:18;;;;;;;29.45;5.55;;;4.50;99.90;;;;;;5030707;28;20037;-90
2023/02/06 09:29:45;;;;;;;29.80;5.70;;;4.60;99.90;;;;;;5029219;28;20029;-90
2023/02/06 09:32:11;;;;;;;37.63;6.07;;;4.70;99.90;;;;;;5030960;28;20093;-90
2023/02/06 09:34:37;;;;;;;40.75;6.75;;;4.80;99.90;;;;;;5034797;28;20103;-90
2023/02/06 09:37:04;;;;;;;26.10;5.30;;;4.90;99.90;;;;;;5036356;28;20156;-90
2023/02/06 09:39:30;;;;;;;37.20;6.80;;;5.00;99.90;;;;;;5036154;28;20018;-90
2023/02/06 09:42:06;;;;;;;36.58;6.18;;;5.20;99.90;;;;;;5034977;28;20044;-89
2023/02/06 09:44:43;;;;;;;37.03;6.65;;;5.30;99.90;;;;;;5024387;28;20038;-90
2023/02/06 09:47:28;;;;;;;39.20;7.45;;;5.40;99.90;;;;;;5029159;28;20026;-90
2023/02/06 09:50:07;;;;;;;29.15;7.05;;;5.60;99.90;;;;;;5034606;28;20040;-89
2023/02/06 09:52:51;;;;;;;21.38;5.75;;;5.70;99.90;;;;;;5030518;28;20042;-89
2023/02/06 09:55:29;;;;;;;29.42;6.57;;;5.90;99.90;;;;;;5036641;28;20035;-89
2023/02/06 09:58:15;;;;;;;39.72;8.20;;;6.00;99.90;;;;;;5031944;28;20036;-89
2023/02/06 10:00:47;;;;;;;33.40;7.28;;;6.10;99.90;;;;;;5027119;28;20029;-89
2023/02/06 10:03:19;;;;;;;;;;;6.20;99.90;;;;;;5034597;28;20500;-89
2023/02/06 10:06:12;;;;;;;27.92;7.22;;;6.30;99.90;;;;;;5034398;28;19924;-89
2023/02/06 10:08:54;;;;;;;39.15;8.68;;;6.40;99.90;;;;;;5035681;28;20035;-89
2023/02/06 10:11:37;;;;;;;29.98;7.30;;;6.40;99.90;;;;;;5045678;28;20021;-89
2023/02/06 10:14:21;;;;;;;34.40;6.80;;;6.40;99.90;;;;;;5032266;28;20478;-89
2023/02/06 10:16:55;;;;;;;33.75;6.18;;;6.50;99.90;;;;;;5034629;28;20025;-89
2023/02/06 10:19:31;;;;;;;25.85;6.50;;;6.50;99.90;;;;;;5029728;28;20093;-89
2023/02/06 10:22:03;;;;;;;28.15;4.97;;;6.50;99.90;;;;;;5028389;28;20037;-89
2023/02/06 10:24:47;;;;;;;24.35;5.95;;;6.50;99.90;;;;;;5043880;28;20086;-89
2023/02/06 10:27:14;;;;;;;24.58;4.13;;;6.40;99.90;;;;;;5030583;28;20033;-88
2023/02/06 10:29:43;;;;;;;22.00;3.80;;;6.40;99.90;;;;;;5033313;28;20047;-89
2023/02/06 10:32:20;;;;;;;22.27;3.92;;;6.40;99.90;;;;;;5030827;28;20022;-89
2023/02/06 10:35:22;;;;;;;24.10;4.75;;;6.50;99.90;;;;;;5030198;28;20029;-89
2023/02/06 10:37:56;;;;;;;28.67;4.10;;;6.60;99.90;;;;;;5029855;28;20025;-89
2023/02/06 10:40:31;;;;;;;19.42;3.38;;;6.70;99.90;;;;;;5018287;28;20030;-89
2023/02/06 10:43:23;;;;;;;24.35;4.13;;;6.70;99.90;;;;;;5033277;28;20116;-89
2023/02/06 10:46:27;;;;;;;26.77;3.43;;;6.80;99.90;;;;;;5023400;28;20037;-89
2023/02/06 10:49:12;;;;;;;25.80;3.40;;;6.80;99.90;;;;;;5029885;28;20312;-89
2023/02/06 10:51:42;;;;;;;35.55;3.83;;;6.90;99.90;;;;;;5031125;28;20030;-89
2023/02/06 10:54:29;;;;;;;24.02;2.83;;;7.00;99.90;;;;;;5025739;28;20053;-89
2023/02/06 10:56:57;;;;;;;28.45;3.00;;;7.10;99.90;;;;;;5020119;28;20053;-89
2023/02/06 10:59:33;;;;;;;25.98;3.47;;;7.20;99.90;;;;;;5028214;28;20029;-89
2023/02/06 11:02:20;;;;;;;30.92;3.33;;;7.30;99.90;;;;;;5027350;28;20389;-88
2023/02/06 11:04:51;;;;;;;27.38;2.95;;;7.40;99.90;;;;;;5027711;28;20069;-90
2023/02/06 11:07:33;;;;;;;22.23;2.13;;;7.50;99.90;;;;;;5018484;28;20124;-89
2023/02/06 11:09:58;;;;;;;17.08;2.42;;;7.50;99.90;;;;;;5043499;28;20116;-89
2023/02/06 11:12:36;;;;;;;17.52;2.33;;;7.50;99.90;;;;;;5028039;28;20120;-89
2023/02/06 11:15:08;;;;;;;24.65;2.63;;;7.60;99.90;;;;;;5023339;28;20026;-89
2023/02/06 11:17:34;;;;;;;21.30;2.67;;;7.60;99.90;;;;;;5014784;28;20025;-89
2023/02/06 11:20:20;;;;;;;17.40;1.77;;;7.60;99.90;;;;;;5014717;28;20068;-89
2023/02/06 11:22:46;;;;;;;29.88;2.78;;;7.60;99.90;;;;;;5030836;28;20022;-89
2023/02/06 11:25:27;;;;;;;14.07;1.98;;;7.60;99.90;;;;;;5032987;28;20137;-89
2023/02/06 11:27:53;;;;;;;13.75;1.38;;;7.60;99.90;;;;;;5031789;28;20021;-89
2023/02/06 11:30:33;;;;;;;24.08;2.30;;;7.60;99.90;;;;;;5031435;28;20047;-89
2023/02/06 11:33:20;;;;;;;19.50;1.75;;;7.50;99.90;;;;;;5046813;28;20033;-88
2023/02/06 11:35:53;;;;;;;19.45;2.33;;;7.50;99.90;;;;;;5027380;28;20064;-88
2023/02/06 11:38:24;;;;;;;13.85;2.67;;;7.50;99.90;;;;;;5036913;28;20029;-87
2023/02/06 11:41:16;;;;;;;24.02;2.83;;;7.50;99.90;;;;;;5027863;28;20084;-89
2023/02/06 11:43:42;;;;;;;31.27;3.08;;;7.60;99.90;;;;;;5022858;28;20041;-89
2023/02/06 11:46:12;;;;;;;19.80;2.10;;;7.60;99.90;;;;;;5032611;28;20410;-89
2023/02/06 11:48:44;;;;;;;28.65;3.63;;;7.60;99.90;;;;;;5028957;28;20071;-88
2023/02/06 11:51:12;;;;;;;17.50;2.37;;;7.60;99.90;;;;;;5029170;28;20033;-89
2023/02/06 11:53:52;;;;;;;21.88;2.70;;;7.60;99.90;;;;;;5028962;28;20029;-88
2023/02/06 11:56:19;;;;;;;22.50;2.63;;;7.60;99.90;;;;;;5028178;28;20040;-89
2023/02/06 11:58:46;;;;;;;19.42;2.58;;;7.70;99.90;;;;;;5026878;28;20108;-88
2023/02/06 12:01:20;;;;;;;18.60;1.63;;;7.80;99.90;;;;;;5028256;28;20033;-88
2023/02/06 12:03:48;;;;;;;22.40;3.35;;;7.90;99.90;;;;;;5029496;28;20148;-89
2023/02/06 12:06:25;;;;;;;17.30;1.65;;;8.00;99.90;;;;;;5027451;28;20477;-89
2023/02/06 12:08:54;;;;;;;23.90;2.42;;;8.00;99.90;;;;;;5029174;28;20038;-88
2023/02/06 12:11:24;;;;;;;19.52;2.65;;;8.10;99.90;;;;;;5031327;28;20026;-89
2023/02/06 12:13:55;;;;;;;22.00;2.70;;;8.20;99.90;;;;;;5028223;28;21598;-88
2023/02/06 12:16:22;;;;;;;24.17;2.50;;;8.30;99.90;;;;;;5029494;28;20116;-89
2023/02/06 12:18:52;;;;;;;19.38;2.47;;;8.50;99.90;;;;;;5029839;28;20026;-89
2023/02/06 12:21:34;;;;;;;19.27;2.67;;;8.60;99.90;;;;;;5029389;28;20101;-88
2023/02/06 12:24:04;;;;;;;19.20;2.97;;;8.80;99.90;;;;;;5024544;28;20093;-88
2023/02/06 12:26:34;;;;;;;16.15;2.40;;;8.80;99.90;;;;;;5033009;28;20041;-88
2023/02/06 12:29:14;;;;;;;10.82;1.02;;;8.80;99.90;;;;;;5030328;28;20105;-88
2023/02/06 12:31:48;;;;;;;11.85;1.42;;;8.80;99.90;;;;;;5032528;28;20049;-88
2023/02/06 12:34:51;;;;;;;14.07;1.08;;;8.70;99.90;;;;;;5028905;28;20026;-88
2023/02/06 12:37:38;;;;;;;23.45;2.05;;;8.70;99.90;;;;;;5026884;28;20021;-88
2023/02/06 12:40:26;;;;;;;16.98;1.60;;;8.70;99.90;;;;;;5021504;28;20034;-88
2023/02/06 12:43:01;;;;;;;19.02;1.90;;;8.60;99.90;;;;;;5028904;28;20040;-88
2023/02/06 12:45:45;;;;;;;18.73;1.63;;;8.60;99.90;;;;;;5023801;28;20041;-88
2023/02/06 12:48:17;;;;;;;13.52;2.28;;;8.50;99.90;;;;;;5021773;28;20666;-87
2023/02/06 12:51:04;;;;;;;18.48;1.52;;;8.50;99.90;;;;;;5029697;28;20499;-87
2023/02/06 12:53:54;;;;;;;13.45;0.93;;;8.40;99.90;;;;;;5016320;28;20029;-88
2023/02/06 12:56:53;;;;;;;16.83;1.65;;;8.20;99.90;;;;;;5013238;28;20056;-88
2023/02/06 12:59:37;;;;;;;12.27;1.00;;;8.20;99.90;;;;;;5029053;28;20136;-87
2023/02/06 13:02:40;;;;;;;20.63;1.55;;;8.10;99.90;;;;;;5029087;28;20116;-88
2023/02/06 13:05:14;;;;;;;;;;;8.20;99.90;;;;;;5018782;28;20091;-84